sensor_id;sensor_type;location;lat;lon;timestamp;pressure;altitude;pressure_sealevel;temperature;humidity
49825;BME280;35714;55.708;37.478;2023-06-10T00:00:40;99814.31;;;13.15;46.08
49825;BME280;35714;55.708;37.478;2023-06-10T00:03:08;99805.47;;;13.08;46.13
49825;BME280;35714;55.708;37.478;2023-06-10T00:05:34;99803.94;;;13.00;46.27
49825;BME280;35714;55.708;37.478;2023-06-10T00:08:02;99794.03;;;12.94;46.28
49825;BME280;35714;55.708;37.478;2023-06-10T00:10:34;99800.19;;;12.90;46.74
49825;BME280;35714;55.708;37.478;2023-06-10T00:13:01;99809.06;;;12.85;46.96
49825;BME280;35714;55.708;37.478;2023-06-10T00:15:28;99810.84;;;12.79;47.22
49825;BME280;35714;55.708;37.478;2023-06-10T00:17:53;99804.25;;;12.75;47.37
49825;BME280;35714;55.708;37.478;2023-06-10T00:20:20;99811.13;;;12.66;47.40
49825;BME280;35714;55.708;37.478;2023-06-10T00:22:47;99819.06;;;12.68;47.50
49825;BME280;35714;55.708;37.478;2023-06-10T00:25:14;99826.03;;;12.63;47.59
49825;BME280;35714;55.708;37.478;2023-06-10T00:27:39;99828.16;;;12.61;47.91
49825;BME280;35714;55.708;37.478;2023-06-10T00:30:06;99831.38;;;12.58;48.17
49825;BME280;35714;55.708;37.478;2023-06-10T00:32:36;99837.63;;;12.59;48.04
49825;BME280;35714;55.708;37.478;2023-06-10T00:35:06;99828.53;;;12.53;48.20
49825;BME280;35714;55.708;37.478;2023-06-10T00:37:32;99836.47;;;12.55;48.04
49825;BME280;35714;55.708;37.478;2023-06-10T00:40:04;99847.34;;;12.55;48.10
49825;BME280;35714;55.708;37.478;2023-06-10T00:42:32;99850.28;;;12.53;48.10
49825;BME280;35714;55.708;37.478;2023-06-10T00:44:58;99841.53;;;12.51;48.11
49825;BME280;35714;55.708;37.478;2023-06-10T00:47:25;99848.16;;;12.55;48.16
49825;BME280;35714;55.708;37.478;2023-06-10T00:49:51;99855.25;;;12.56;48.24
49825;BME280;35714;55.708;37.478;2023-06-10T00:52:18;99852.66;;;12.61;48.13
49825;BME280;35714;55.708;37.478;2023-06-10T00:54:45;99863.88;;;12.65;47.99
49825;BME280;35714;55.708;37.478;2023-06-10T00:57:12;99864.59;;;12.72;48.13
49825;BME280;35714;55.708;37.478;2023-06-10T00:59:40;99869.91;;;12.79;47.99
49825;BME280;35714;55.708;37.478;2023-06-10T01:02:07;99869.28;;;12.89;47.99
49825;BME280;35714;55.708;37.478;2023-06-10T01:04:33;99871.66;;;12.97;47.90
49825;BME280;35714;55.708;37.478;2023-06-10T01:07:20;99874.81;;;13.06;47.93
49825;BME280;35714;55.708;37.478;2023-06-10T01:12:29;99873.00;;;13.23;47.52
49825;BME280;35714;55.708;37.478;2023-06-10T01:14:56;99876.09;;;13.27;47.49
49825;BME280;35714;55.708;37.478;2023-06-10T01:17:23;99878.31;;;13.30;47.60
49825;BME280;35714;55.708;37.478;2023-06-10T01:19:59;99886.88;;;13.33;47.66
49825;BME280;35714;55.708;37.478;2023-06-10T01:22:26;99883.28;;;13.33;47.41
49825;BME280;35714;55.708;37.478;2023-06-10T01:24:58;99893.94;;;13.34;47.26
49825;BME280;35714;55.708;37.478;2023-06-10T01:27:29;99889.34;;;13.35;47.35
49825;BME280;35714;55.708;37.478;2023-06-10T01:30:04;99897.75;;;13.33;47.33
49825;BME280;35714;55.708;37.478;2023-06-10T01:32:34;99896.06;;;13.32;47.38
49825;BME280;35714;55.708;37.478;2023-06-10T01:35:05;99892.75;;;13.30;47.51
49825;BME280;35714;55.708;37.478;2023-06-10T01:37:33;99887.56;;;13.29;47.32
49825;BME280;35714;55.708;37.478;2023-06-10T01:40:00;99901.31;;;13.34;47.42
49825;BME280;35714;55.708;37.478;2023-06-10T01:42:31;99883.66;;;13.37;47.47
49825;BME280;35714;55.708;37.478;2023-06-10T01:44:58;99891.09;;;13.41;47.65
49825;BME280;35714;55.708;37.478;2023-06-10T01:47:25;99894.66;;;13.42;47.52
49825;BME280;35714;55.708;37.478;2023-06-10T01:49:50;99903.41;;;13.44;47.63
49825;BME280;35714;55.708;37.478;2023-06-10T01:52:16;99905.06;;;13.45;47.66
49825;BME280;35714;55.708;37.478;2023-06-10T01:54:43;99904.25;;;13.44;47.67
49825;BME280;35714;55.708;37.478;2023-06-10T01:57:08;99908.34;;;13.47;47.60
49825;BME280;35714;55.708;37.478;2023-06-10T01:59:34;99916.53;;;13.47;47.74
49825;BME280;35714;55.708;37.478;2023-06-10T02:02:02;99911.81;;;13.42;47.88
49825;BME280;35714;55.708;37.478;2023-06-10T02:04:28;99929.47;;;13.40;48.00
49825;BME280;35714;55.708;37.478;2023-06-10T02:06:53;99917.41;;;13.35;48.18
49825;BME280;35714;55.708;37.478;2023-06-10T02:09:21;99924.50;;;13.37;48.37
49825;BME280;35714;55.708;37.478;2023-06-10T02:11:48;99924.50;;;13.37;48.48
49825;BME280;35714;55.708;37.478;2023-06-10T02:14:14;99924.50;;;13.37;48.57
49825;BME280;35714;55.708;37.478;2023-06-10T02:16:40;99923.66;;;13.36;48.66
49825;BME280;35714;55.708;37.478;2023-06-10T02:19:06;99919.56;;;13.33;48.60
49825;BME280;35714;55.708;37.478;2023-06-10T02:21:33;99921.06;;;13.29;48.63
49825;BME280;35714;55.708;37.478;2023-06-10T02:24:00;99924.63;;;13.30;48.77
49825;BME280;35714;55.708;37.478;2023-06-10T02:26:26;99924.34;;;13.31;48.93
49825;BME280;35714;55.708;37.478;2023-06-10T02:28:52;99931.38;;;13.27;48.81
49825;BME280;35714;55.708;37.478;2023-06-10T02:31:18;99930.78;;;13.25;49.06
49825;BME280;35714;55.708;37.478;2023-06-10T02:33:44;99932.31;;;13.21;49.03
49825;BME280;35714;55.708;37.478;2023-06-10T02:36:10;99940.72;;;13.20;49.26
49825;BME280;35714;55.708;37.478;2023-06-10T02:38:41;99943.69;;;13.18;49.34
49825;BME280;35714;55.708;37.478;2023-06-10T02:41:08;99936.59;;;13.17;49.36
49825;BME280;35714;55.708;37.478;2023-06-10T02:43:34;99941.22;;;13.16;49.34
49825;BME280;35714;55.708;37.478;2023-06-10T02:46:00;99948.56;;;13.16;49.18
49825;BME280;35714;55.708;37.478;2023-06-10T02:48:27;99945.84;;;13.16;49.26
49825;BME280;35714;55.708;37.478;2023-06-10T02:50:54;99946.91;;;13.15;49.47
49825;BME280;35714;55.708;37.478;2023-06-10T02:53:35;99938.72;;;13.15;49.37
49825;BME280;35714;55.708;37.478;2023-06-10T02:56:06;99952.34;;;13.15;49.16
49825;BME280;35714;55.708;37.478;2023-06-10T02:58:32;99944.19;;;13.15;49.04
49825;BME280;35714;55.708;37.478;2023-06-10T03:00:58;99956.72;;;13.16;48.98
49825;BME280;35714;55.708;37.478;2023-06-10T03:03:25;99952.91;;;13.17;49.08
49825;BME280;35714;55.708;37.478;2023-06-10T03:06:02;99955.41;;;13.18;49.12
49825;BME280;35714;55.708;37.478;2023-06-10T03:08:29;99959.56;;;13.21;49.03
49825;BME280;35714;55.708;37.478;2023-06-10T03:10:56;99961.22;;;13.22;48.70
49825;BME280;35714;55.708;37.478;2023-06-10T03:13:23;99962.84;;;13.23;48.66
49825;BME280;35714;55.708;37.478;2023-06-10T03:15:49;99962.03;;;13.23;48.51
49825;BME280;35714;55.708;37.478;2023-06-10T03:18:18;99959.09;;;13.24;48.54
49825;BME280;35714;55.708;37.478;2023-06-10T03:20:44;99959.56;;;13.21;48.57
49825;BME280;35714;55.708;37.478;2023-06-10T03:23:11;99959.66;;;13.26;48.45
49825;BME280;35714;55.708;37.478;2023-06-10T03:25:37;99963.56;;;13.30;48.43
49825;BME280;35714;55.708;37.478;2023-06-10T03:28:03;99961.44;;;13.32;48.37
49825;BME280;35714;55.708;37.478;2023-06-10T03:30:29;99966.44;;;13.35;48.47
49825;BME280;35714;55.708;37.478;2023-06-10T03:32:55;99971.97;;;13.41;48.41
49825;BME280;35714;55.708;37.478;2023-06-10T03:35:24;99974.81;;;13.46;48.21
49825;BME280;35714;55.708;37.478;2023-06-10T03:37:50;99967.22;;;13.48;48.09
49825;BME280;35714;55.708;37.478;2023-06-10T03:40:15;99980.94;;;13.53;48.02
49825;BME280;35714;55.708;37.478;2023-06-10T03:42:46;99966.84;;;13.56;48.09
49825;BME280;35714;55.708;37.478;2023-06-10T03:45:14;99969.66;;;13.61;47.96
49825;BME280;35714;55.708;37.478;2023-06-10T03:47:40;99973.34;;;13.67;47.91
49825;BME280;35714;55.708;37.478;2023-06-10T03:50:10;99971.19;;;13.69;47.63
49825;BME280;35714;55.708;37.478;2023-06-10T03:52:37;99979.13;;;13.70;47.61
49825;BME280;35714;55.708;37.478;2023-06-10T03:55:03;99977.34;;;13.76;47.43
49825;BME280;35714;55.708;37.478;2023-06-10T03:57:30;99975.56;;;13.82;47.26
49825;BME280;35714;55.708;37.478;2023-06-10T03:59:55;99978.38;;;13.87;47.59
49825;BME280;35714;55.708;37.478;2023-06-10T04:02:22;99971.94;;;13.93;47.09
49825;BME280;35714;55.708;37.478;2023-06-10T04:04:48;99977.50;;;13.98;47.07
49825;BME280;35714;55.708;37.478;2023-06-10T04:07:14;99982.22;;;14.03;46.94
49825;BME280;35714;55.708;37.478;2023-06-10T04:09:40;99985.03;;;14.08;46.98
49825;BME280;35714;55.708;37.478;2023-06-10T04:12:06;99987.88;;;14.13;46.70
49825;BME280;35714;55.708;37.478;2023-06-10T04:14:35;99986.53;;;14.16;46.51
49825;BME280;35714;55.708;37.478;2023-06-10T04:17:02;99988.84;;;14.24;46.54
49825;BME280;35714;55.708;37.478;2023-06-10T04:19:29;99986.56;;;14.33;46.24
49825;BME280;35714;55.708;37.478;2023-06-10T04:21:57;99992.44;;;14.41;46.20
49825;BME280;35714;55.708;37.478;2023-06-10T04:24:23;99990.72;;;14.52;46.27
49825;BME280;35714;55.708;37.478;2023-06-10T04:26:49;99992.69;;;14.57;46.03
49825;BME280;35714;55.708;37.478;2023-06-10T04:29:15;99982.50;;;14.64;45.66
49825;BME280;35714;55.708;37.478;2023-06-10T04:31:41;99997.03;;;14.70;45.38
49825;BME280;35714;55.708;37.478;2023-06-10T04:34:08;99984.88;;;14.77;45.04
49825;BME280;35714;55.708;37.478;2023-06-10T04:36:34;99991.75;;;14.80;44.83
49825;BME280;35714;55.708;37.478;2023-06-10T04:39:00;99994.91;;;14.89;45.04
49825;BME280;35714;55.708;37.478;2023-06-10T04:41:29;99989.00;;;14.97;44.68
49825;BME280;35714;55.708;37.478;2023-06-10T04:43:54;100001.97;;;15.07;44.65
49825;BME280;35714;55.708;37.478;2023-06-10T04:46:21;99995.25;;;15.14;44.07
49825;BME280;35714;55.708;37.478;2023-06-10T04:48:47;100003.53;;;15.20;44.00
49825;BME280;35714;55.708;37.478;2023-06-10T04:51:13;100001.94;;;15.24;43.51
49825;BME280;35714;55.708;37.478;2023-06-10T04:53:39;99999.28;;;15.29;43.30
49825;BME280;35714;55.708;37.478;2023-06-10T04:56:05;100002.44;;;15.38;43.06
49825;BME280;35714;55.708;37.478;2023-06-10T04:58:31;100003.41;;;15.48;43.05
49825;BME280;35714;55.708;37.478;2023-06-10T05:00:56;100013.88;;;15.57;42.47
49825;BME280;35714;55.708;37.478;2023-06-10T05:03:22;100013.94;;;15.62;42.29
49825;BME280;35714;55.708;37.478;2023-06-10T05:05:48;100018.94;;;15.70;42.11
49825;BME280;35714;55.708;37.478;2023-06-10T05:08:13;100021.84;;;15.80;41.91
49825;BME280;35714;55.708;37.478;2023-06-10T05:10:39;100022.22;;;15.89;41.75
49825;BME280;35714;55.708;37.478;2023-06-10T05:13:05;100019.31;;;15.96;40.97
49825;BME280;35714;55.708;37.478;2023-06-10T05:15:31;100016.63;;;16.01;41.41
49825;BME280;35714;55.708;37.478;2023-06-10T05:17:57;100022.13;;;16.06;41.14
49825;BME280;35714;55.708;37.478;2023-06-10T05:20:24;100019.19;;;16.13;40.47
49825;BME280;35714;55.708;37.478;2023-06-10T05:22:50;100019.53;;;16.16;40.00
49825;BME280;35714;55.708;37.478;2023-06-10T05:25:16;100010.72;;;16.14;39.66
49825;BME280;35714;55.708;37.478;2023-06-10T05:27:42;100014.66;;;16.23;39.71
49825;BME280;35714;55.708;37.478;2023-06-10T05:30:10;100027.31;;;16.30;39.50
49825;BME280;35714;55.708;37.478;2023-06-10T05:32:36;100029.03;;;16.36;39.11
49825;BME280;35714;55.708;37.478;2023-06-10T05:35:02;100024.06;;;16.33;38.81
49825;BME280;35714;55.708;37.478;2023-06-10T05:37:30;100027.91;;;16.32;39.16
49825;BME280;35714;55.708;37.478;2023-06-10T05:39:55;100040.59;;;16.43;39.07
49825;BME280;35714;55.708;37.478;2023-06-10T05:42:21;100032.66;;;16.41;38.63
49825;BME280;35714;55.708;37.478;2023-06-10T05:44:47;100028.00;;;16.42;38.75
49825;BME280;35714;55.708;37.478;2023-06-10T05:47:12;100034.66;;;16.51;38.95
49825;BME280;35714;55.708;37.478;2023-06-10T05:49:38;100037.75;;;16.60;39.26
49825;BME280;35714;55.708;37.478;2023-06-10T05:52:04;100038.09;;;16.69;39.04
49825;BME280;35714;55.708;37.478;2023-06-10T05:54:30;100039.81;;;16.80;38.66
49825;BME280;35714;55.708;37.478;2023-06-10T05:56:56;100046.25;;;16.91;38.68
49825;BME280;35714;55.708;37.478;2023-06-10T05:59:22;100040.53;;;16.98;38.45
49825;BME280;35714;55.708;37.478;2023-06-10T06:01:49;100033.22;;;17.08;38.01
49825;BME280;35714;55.708;37.478;2023-06-10T06:04:16;100034.09;;;17.14;37.44
49825;BME280;35714;55.708;37.478;2023-06-10T06:06:42;100039.63;;;17.24;37.84
49825;BME280;35714;55.708;37.478;2023-06-10T06:09:07;100043.59;;;17.39;37.49
49825;BME280;35714;55.708;37.478;2023-06-10T06:11:34;100045.84;;;17.52;37.21
49825;BME280;35714;55.708;37.478;2023-06-10T06:14:00;100033.00;;;17.58;36.58
49825;BME280;35714;55.708;37.478;2023-06-10T06:16:25;100039.34;;;17.68;36.50
49825;BME280;35714;55.708;37.478;2023-06-10T06:18:51;100040.47;;;17.78;36.23
49825;BME280;35714;55.708;37.478;2023-06-10T06:21:17;100047.09;;;17.87;36.52
49825;BME280;35714;55.708;37.478;2023-06-10T06:23:42;100047.19;;;17.97;36.11
49825;BME280;35714;55.708;37.478;2023-06-10T06:26:08;100049.97;;;18.13;35.79
49825;BME280;35714;55.708;37.478;2023-06-10T06:28:34;100040.66;;;18.24;35.31
49825;BME280;35714;55.708;37.478;2023-06-10T06:31:00;100042.91;;;18.43;35.65
49825;BME280;35714;55.708;37.478;2023-06-10T06:33:25;100050.59;;;18.51;35.34
49825;BME280;35714;55.708;37.478;2023-06-10T06:35:52;100048.41;;;18.43;35.28
49825;BME280;35714;55.708;37.478;2023-06-10T06:38:17;100059.88;;;18.29;34.96
49825;BME280;35714;55.708;37.478;2023-06-10T06:40:43;100062.03;;;18.17;35.79
49825;BME280;35714;55.708;37.478;2023-06-10T06:43:09;100061.00;;;18.44;35.84
49825;BME280;35714;55.708;37.478;2023-06-10T06:45:40;100067.69;;;18.94;35.03
49825;BME280;35714;55.708;37.478;2023-06-10T06:48:06;100062.13;;;19.51;34.11
49825;BME280;35714;55.708;37.478;2023-06-10T06:50:32;100075.47;;;20.04;33.32
49825;BME280;35714;55.708;37.478;2023-06-10T06:52:58;100068.22;;;20.23;33.05
49825;BME280;35714;55.708;37.478;2023-06-10T06:55:23;100076.81;;;20.11;32.39
49825;BME280;35714;55.708;37.478;2023-06-10T06:57:49;100082.09;;;19.97;33.23
49825;BME280;35714;55.708;37.478;2023-06-10T07:00:15;100073.91;;;20.37;32.89
49825;BME280;35714;55.708;37.478;2023-06-10T07:02:41;100072.59;;;20.74;32.59
49825;BME280;35714;55.708;37.478;2023-06-10T07:05:07;100079.22;;;20.78;31.93
49825;BME280;35714;55.708;37.478;2023-06-10T07:07:34;100075.16;;;21.00;31.75
49825;BME280;35714;55.708;37.478;2023-06-10T07:09:59;100087.75;;;21.70;30.81
49825;BME280;35714;55.708;37.478;2023-06-10T07:12:25;100079.41;;;22.61;29.83
49825;BME280;35714;55.708;37.478;2023-06-10T07:14:51;100077.06;;;23.39;28.71
49825;BME280;35714;55.708;37.478;2023-06-10T07:17:17;100090.72;;;23.64;27.81
49825;BME280;35714;55.708;37.478;2023-06-10T07:19:45;100077.88;;;23.54;27.35
49825;BME280;35714;55.708;37.478;2023-06-10T07:22:10;100075.06;;;23.26;27.51
49825;BME280;35714;55.708;37.478;2023-06-10T07:24:36;100076.38;;;23.15;27.68
49825;BME280;35714;55.708;37.478;2023-06-10T07:27:02;100076.19;;;23.86;27.31
49825;BME280;35714;55.708;37.478;2023-06-10T07:29:28;100082.47;;;25.01;26.46
49825;BME280;35714;55.708;37.478;2023-06-10T07:31:54;100083.47;;;25.90;25.46
49825;BME280;35714;55.708;37.478;2023-06-10T07:34:20;100081.78;;;26.21;24.65
49825;BME280;35714;55.708;37.478;2023-06-10T07:36:45;100088.31;;;26.25;24.40
49825;BME280;35714;55.708;37.478;2023-06-10T07:39:11;100099.44;;;25.76;24.37
49825;BME280;35714;55.708;37.478;2023-06-10T07:41:37;100098.91;;;24.89;24.61
49825;BME280;35714;55.708;37.478;2023-06-10T07:44:03;100103.16;;;23.94;25.41
49825;BME280;35714;55.708;37.478;2023-06-10T07:46:29;100104.47;;;23.22;26.23
49825;BME280;35714;55.708;37.478;2023-06-10T07:48:55;100107.22;;;22.70;26.78
49825;BME280;35714;55.708;37.478;2023-06-10T07:51:21;100111.22;;;22.40;26.53
49825;BME280;35714;55.708;37.478;2023-06-10T07:53:47;100110.13;;;21.92;26.64
49825;BME280;35714;55.708;37.478;2023-06-10T07:56:13;100111.75;;;21.69;27.42
49825;BME280;35714;55.708;37.478;2023-06-10T07:58:39;100107.72;;;21.61;27.36
49825;BME280;35714;55.708;37.478;2023-06-10T08:01:04;100112.91;;;22.16;27.20
49825;BME280;35714;55.708;37.478;2023-06-10T08:03:30;100106.66;;;23.39;26.55
49825;BME280;35714;55.708;37.478;2023-06-10T08:05:56;100107.63;;;24.59;25.53
49825;BME280;35714;55.708;37.478;2023-06-10T08:08:22;100109.09;;;25.02;23.75
49825;BME280;35714;55.708;37.478;2023-06-10T08:10:48;100110.44;;;24.68;23.91
49825;BME280;35714;55.708;37.478;2023-06-10T08:13:15;100107.03;;;24.35;24.09
49825;BME280;35714;55.708;37.478;2023-06-10T08:15:41;100102.84;;;24.74;23.99
49825;BME280;35714;55.708;37.478;2023-06-10T08:18:07;100109.41;;;25.77;23.11
49825;BME280;35714;55.708;37.478;2023-06-10T08:20:33;100106.88;;;26.99;21.66
49825;BME280;35714;55.708;37.478;2023-06-10T08:22:58;100120.94;;;28.24;20.40
49825;BME280;35714;55.708;37.478;2023-06-10T08:25:24;100109.22;;;29.36;18.97
49825;BME280;35714;55.708;37.478;2023-06-10T08:27:50;100110.47;;;30.21;18.23
49825;BME280;35714;55.708;37.478;2023-06-10T08:30:18;100135.06;;;31.06;17.61
49825;BME280;35714;55.708;37.478;2023-06-10T08:32:43;100138.38;;;31.84;16.87
49825;BME280;35714;55.708;37.478;2023-06-10T08:35:09;100126.72;;;31.38;16.13
49825;BME280;35714;55.708;37.478;2023-06-10T08:37:35;100122.84;;;30.08;17.22
49825;BME280;35714;55.708;37.478;2023-06-10T08:40:01;100139.81;;;29.32;18.05
49825;BME280;35714;55.708;37.478;2023-06-10T08:42:33;100145.09;;;28.92;18.75
49825;BME280;35714;55.708;37.478;2023-06-10T08:45:01;100141.69;;;28.35;17.99
49825;BME280;35714;55.708;37.478;2023-06-10T08:47:34;100150.00;;;28.74;17.44
49825;BME280;35714;55.708;37.478;2023-06-10T08:50:04;100132.31;;;29.58;16.25
49825;BME280;35714;55.708;37.478;2023-06-10T08:52:40;100146.84;;;30.58;15.40
49825;BME280;35714;55.708;37.478;2023-06-10T08:55:18;100142.03;;;31.12;14.57
49825;BME280;35714;55.708;37.478;2023-06-10T08:57:45;100139.13;;;30.68;15.26
49825;BME280;35714;55.708;37.478;2023-06-10T09:00:13;100144.97;;;30.01;15.28
49825;BME280;35714;55.708;37.478;2023-06-10T09:02:40;100143.81;;;30.14;14.92
49825;BME280;35714;55.708;37.478;2023-06-10T09:05:07;100150.84;;;30.86;14.99
49825;BME280;35714;55.708;37.478;2023-06-10T09:20:33;100156.31;;;34.30;11.04
49825;BME280;35714;55.708;37.478;2023-06-10T09:23:00;100149.56;;;34.65;11.55
49825;BME280;35714;55.708;37.478;2023-06-10T09:25:38;100157.88;;;35.15;10.54
49825;BME280;35714;55.708;37.478;2023-06-10T09:28:05;100162.56;;;35.34;11.08
49825;BME280;35714;55.708;37.478;2023-06-10T09:30:37;100162.88;;;35.63;11.36
49825;BME280;35714;55.708;37.478;2023-06-10T09:33:10;100162.47;;;36.09;10.48
49825;BME280;35714;55.708;37.478;2023-06-10T09:35:45;100157.19;;;36.59;10.33
49825;BME280;35714;55.708;37.478;2023-06-10T09:38:11;100156.66;;;37.06;10.51
49825;BME280;35714;55.708;37.478;2023-06-10T09:40:50;100153.53;;;37.40;9.83
49825;BME280;35714;55.708;37.478;2023-06-10T09:43:16;100167.56;;;37.18;9.97
49825;BME280;35714;55.708;37.478;2023-06-10T09:45:42;100165.75;;;36.15;10.81
49825;BME280;35714;55.708;37.478;2023-06-10T09:48:09;100164.78;;;35.17;11.31
49825;BME280;35714;55.708;37.478;2023-06-10T09:50:41;100169.34;;;33.92;11.59
49825;BME280;35714;55.708;37.478;2023-06-10T09:53:08;100177.06;;;32.58;12.57
49825;BME280;35714;55.708;37.478;2023-06-10T09:55:33;100168.66;;;31.34;13.16
49825;BME280;35714;55.708;37.478;2023-06-10T09:58:00;100165.25;;;30.35;13.70
49825;BME280;35714;55.708;37.478;2023-06-10T10:00:26;100163.09;;;29.70;14.75
49825;BME280;35714;55.708;37.478;2023-06-10T10:02:53;100166.28;;;29.35;14.68
49825;BME280;35714;55.708;37.478;2023-06-10T10:05:21;100165.38;;;29.01;15.40
49825;BME280;35714;55.708;37.478;2023-06-10T10:07:48;100156.94;;;29.31;14.82
49825;BME280;35714;55.708;37.478;2023-06-10T10:10:15;100154.78;;;30.44;14.49
49825;BME280;35714;55.708;37.478;2023-06-10T10:12:42;100163.69;;;31.72;12.83
49825;BME280;35714;55.708;37.478;2023-06-10T10:15:09;100163.75;;;32.90;12.53
49825;BME280;35714;55.708;37.478;2023-06-10T10:17:42;100171.53;;;34.02;11.56
49825;BME280;35714;55.708;37.478;2023-06-10T10:20:13;100167.56;;;34.30;11.55
49825;BME280;35714;55.708;37.478;2023-06-10T10:22:41;100169.09;;;33.35;11.60
49825;BME280;35714;55.708;37.478;2023-06-10T10:25:13;100182.97;;;31.89;12.54
49825;BME280;35714;55.708;37.478;2023-06-10T10:28:07;100165.63;;;30.46;13.55
49825;BME280;35714;55.708;37.478;2023-06-10T10:30:41;100160.09;;;29.08;14.33
49825;BME280;35714;55.708;37.478;2023-06-10T10:33:19;100162.84;;;28.06;15.33
49825;BME280;35714;55.708;37.478;2023-06-10T10:35:46;100181.19;;;27.25;15.71
49825;BME280;35714;55.708;37.478;2023-06-10T10:38:12;100174.97;;;26.76;16.16
49825;BME280;35714;55.708;37.478;2023-06-10T10:40:38;100168.50;;;26.40;16.15
49825;BME280;35714;55.708;37.478;2023-06-10T10:43:05;100162.97;;;26.49;16.31
49825;BME280;35714;55.708;37.478;2023-06-10T10:45:33;100167.78;;;26.75;16.60
49825;BME280;35714;55.708;37.478;2023-06-10T10:48:05;100167.47;;;26.85;16.52
49825;BME280;35714;55.708;37.478;2023-06-10T10:50:31;100174.00;;;26.89;16.00
49825;BME280;35714;55.708;37.478;2023-06-10T10:53:03;100167.41;;;26.68;16.50
49825;BME280;35714;55.708;37.478;2023-06-10T10:55:31;100167.97;;;26.29;16.41
49825;BME280;35714;55.708;37.478;2023-06-10T10:58:05;100174.16;;;26.67;17.26
49825;BME280;35714;55.708;37.478;2023-06-10T11:00:43;100178.13;;;28.00;16.09
49825;BME280;35714;55.708;37.478;2023-06-10T11:03:15;100159.13;;;29.59;15.20
49825;BME280;35714;55.708;37.478;2023-06-10T11:05:44;100172.19;;;31.03;14.32
49825;BME280;35714;55.708;37.478;2023-06-10T11:10:58;100176.03;;;33.21;12.80
49825;BME280;35714;55.708;37.478;2023-06-10T11:13:25;100175.66;;;34.08;11.69
49825;BME280;35714;55.708;37.478;2023-06-10T11:15:52;100174.59;;;34.70;11.12
49825;BME280;35714;55.708;37.478;2023-06-10T11:18:28;100174.94;;;34.92;10.02
49825;BME280;35714;55.708;37.478;2023-06-10T11:20:57;100171.06;;;35.07;9.89
49825;BME280;35714;55.708;37.478;2023-06-10T11:26:29;100177.88;;;36.19;9.46
49825;BME280;35714;55.708;37.478;2023-06-10T11:31:27;100175.38;;;37.57;9.18
49825;BME280;35714;55.708;37.478;2023-06-10T11:33:58;100156.88;;;38.17;8.79
49825;BME280;35714;55.708;37.478;2023-06-10T11:36:26;100167.28;;;38.74;8.84
49825;BME280;35714;55.708;37.478;2023-06-10T11:38:57;100177.66;;;39.21;7.83
49825;BME280;35714;55.708;37.478;2023-06-10T11:41:28;100177.25;;;39.19;7.57
49825;BME280;35714;55.708;37.478;2023-06-10T11:44:01;100165.75;;;37.80;8.39
49825;BME280;35714;55.708;37.478;2023-06-10T11:46:27;100184.81;;;35.80;9.32
49825;BME280;35714;55.708;37.478;2023-06-10T11:48:55;100169.78;;;33.71;10.50
49825;BME280;35714;55.708;37.478;2023-06-10T11:51:21;100171.66;;;32.01;11.34
49825;BME280;35714;55.708;37.478;2023-06-10T11:53:50;100175.53;;;30.55;12.43
49825;BME280;35714;55.708;37.478;2023-06-10T11:56:23;100173.63;;;29.52;12.84
49825;BME280;35714;55.708;37.478;2023-06-10T11:59:07;100171.03;;;28.92;13.26
49825;BME280;35714;55.708;37.478;2023-06-10T12:01:38;100170.22;;;28.92;13.74
49825;BME280;35714;55.708;37.478;2023-06-10T12:04:14;100170.53;;;29.11;13.54
49825;BME280;35714;55.708;37.478;2023-06-10T12:06:50;100176.41;;;28.76;14.29
49825;BME280;35714;55.708;37.478;2023-06-10T12:09:28;100171.34;;;28.19;14.13
49825;BME280;35714;55.708;37.478;2023-06-10T12:12:02;100177.88;;;27.67;15.12
49825;BME280;35714;55.708;37.478;2023-06-10T12:17:17;100180.88;;;26.74;15.79
49825;BME280;35714;55.708;37.478;2023-06-10T12:19:42;100173.25;;;26.40;15.96
49825;BME280;35714;55.708;37.478;2023-06-10T12:22:08;100178.25;;;27.13;15.03
49825;BME280;35714;55.708;37.478;2023-06-10T12:24:44;100177.50;;;29.05;14.14
49825;BME280;35714;55.708;37.478;2023-06-10T12:27:13;100168.81;;;30.97;12.67
49825;BME280;35714;55.708;37.478;2023-06-10T12:29:39;100175.94;;;32.63;11.56
49825;BME280;35714;55.708;37.478;2023-06-10T12:32:05;100169.47;;;33.99;11.30
49825;BME280;35714;55.708;37.478;2023-06-10T12:34:35;100175.19;;;35.13;10.07
49825;BME280;35714;55.708;37.478;2023-06-10T12:37:03;100168.97;;;36.13;9.62
49825;BME280;35714;55.708;37.478;2023-06-10T12:39:31;100177.28;;;36.40;9.15
49825;BME280;35714;55.708;37.478;2023-06-10T12:41:57;100166.41;;;35.18;9.39
49825;BME280;35714;55.708;37.478;2023-06-10T12:44:33;100175.41;;;33.94;10.15
49825;BME280;35714;55.708;37.478;2023-06-10T12:47:00;100171.22;;;33.41;11.19
49825;BME280;35714;55.708;37.478;2023-06-10T12:49:26;100178.69;;;32.59;11.65
49825;BME280;35714;55.708;37.478;2023-06-10T12:51:53;100186.63;;;31.61;11.95
49825;BME280;35714;55.708;37.478;2023-06-10T12:54:19;100163.16;;;30.69;12.84
49825;BME280;35714;55.708;37.478;2023-06-10T12:56:44;100166.34;;;30.43;13.32
49825;BME280;35714;55.708;37.478;2023-06-10T12:59:10;100170.56;;;31.02;12.98
49825;BME280;35714;55.708;37.478;2023-06-10T13:01:37;100162.72;;;30.95;13.08
49825;BME280;35714;55.708;37.478;2023-06-10T13:04:05;100170.09;;;30.87;13.23
49825;BME280;35714;55.708;37.478;2023-06-10T13:06:31;100171.28;;;31.55;13.02
49825;BME280;35714;55.708;37.478;2023-06-10T13:08:59;100179.56;;;32.63;12.63
49825;BME280;35714;55.708;37.478;2023-06-10T13:11:24;100176.06;;;33.64;11.16
49825;BME280;35714;55.708;37.478;2023-06-10T13:13:51;100180.47;;;34.31;10.85